メインページ
METAR-TAF:

METAR-TAF

空港 :

ダカール, セネガル

レオポール・セダール・サンゴール国際空港

緯度: 14-44N, 経度: 017-30W, 海抜: 27m

現時点の気象観測

当レポートは33分前の11:30(UTC)に作成
の風 16kt
気温 24°C
湿度 74%
気圧 1014 hPa
視程10km以上
1,500メートル以下は雲なし、積乱雲なし

METAR: GOOY 231130Z 01016KT CAVOK 24/19 Q1014 NOSIG

時間: 12:03 (12:03 UTC)

予報

当レポートは33分前の11:30(UTC)に作成
予報は23日の 12時(UTC)から 24日の 18時(UTC)まで有効
の風 15kt
視程10km以上
1,500メートル以下は雲なし、積乱雲なし

TAF: GOOY 231130Z 2312/2418 35015KT CAVOK

4,000以上の空港の気象観測と天気予報(METAR報とTAF報)

利用可能な観測所は地図上に黄色い丸と赤い丸で示す。

丸の上にカーソルを重ねると観測所名を参照できる。

次にクリックすると気象観測と天気予報を参照できる。

マップの切り替え:黒色「×」印の緑ボタンをクリックして拡大、「-」印の緑ボタンをクリックして縮小、緑色の三角印をクリックして隣りの地図に切り替え


METAR-TAF: